sensor_id;sensor_type;location;lat;lon;timestamp;P1;durP1;ratioP1;P2;durP2;ratioP2
10537;SDS011;5317;49.048;8.468;2023-03-04T00:01:26;23.87;;;15.63;;
10537;SDS011;5317;49.048;8.468;2023-03-04T00:03:53;23.27;;;14.93;;
10537;SDS011;5317;49.048;8.468;2023-03-04T00:06:20;25.37;;;14.37;;
10537;SDS011;5317;49.048;8.468;2023-03-04T00:08:47;25.20;;;14.63;;
10537;SDS011;5317;49.048;8.468;2023-03-04T00:11:13;22.57;;;15.37;;
10537;SDS011;5317;49.048;8.468;2023-03-04T00:13:40;23.57;;;14.60;;
10537;SDS011;5317;49.048;8.468;2023-03-04T00:16:07;25.83;;;15.07;;
10537;SDS011;5317;49.048;8.468;2023-03-04T00:18:35;24.87;;;14.70;;
10537;SDS011;5317;49.048;8.468;2023-03-04T00:21:02;23.43;;;14.73;;
10537;SDS011;5317;49.048;8.468;2023-03-04T00:23:29;23.93;;;14.67;;
10537;SDS011;5317;49.048;8.468;2023-03-04T00:25:56;21.73;;;13.83;;
10537;SDS011;5317;49.048;8.468;2023-03-04T00:28:23;23.33;;;14.33;;
10537;SDS011;5317;49.048;8.468;2023-03-04T00:30:50;21.33;;;14.32;;
10537;SDS011;5317;49.048;8.468;2023-03-04T00:33:17;21.30;;;14.18;;
10537;SDS011;5317;49.048;8.468;2023-03-04T00:35:45;22.33;;;14.37;;
10537;SDS011;5317;49.048;8.468;2023-03-04T00:38:12;18.98;;;13.30;;
10537;SDS011;5317;49.048;8.468;2023-03-04T00:40:39;22.57;;;13.80;;
10537;SDS011;5317;49.048;8.468;2023-03-04T00:43:06;21.17;;;13.97;;
10537;SDS011;5317;49.048;8.468;2023-03-04T00:45:32;19.73;;;13.27;;
10537;SDS011;5317;49.048;8.468;2023-03-04T00:47:59;21.08;;;14.05;;
10537;SDS011;5317;49.048;8.468;2023-03-04T00:50:26;20.73;;;13.32;;
10537;SDS011;5317;49.048;8.468;2023-03-04T00:52:55;20.77;;;14.65;;
10537;SDS011;5317;49.048;8.468;2023-03-04T00:55:21;22.17;;;14.60;;
10537;SDS011;5317;49.048;8.468;2023-03-04T00:57:49;20.95;;;13.80;;
10537;SDS011;5317;49.048;8.468;2023-03-04T01:00:16;22.33;;;13.88;;
10537;SDS011;5317;49.048;8.468;2023-03-04T01:02:43;21.55;;;13.30;;
10537;SDS011;5317;49.048;8.468;2023-03-04T01:05:10;22.65;;;13.88;;
10537;SDS011;5317;49.048;8.468;2023-03-04T01:07:37;22.20;;;14.32;;
10537;SDS011;5317;49.048;8.468;2023-03-04T01:10:07;23.27;;;14.33;;
10537;SDS011;5317;49.048;8.468;2023-03-04T01:12:35;21.88;;;13.75;;
10537;SDS011;5317;49.048;8.468;2023-03-04T01:15:02;21.00;;;13.90;;
10537;SDS011;5317;49.048;8.468;2023-03-04T01:17:29;23.13;;;14.13;;
10537;SDS011;5317;49.048;8.468;2023-03-04T01:19:56;19.90;;;13.52;;
10537;SDS011;5317;49.048;8.468;2023-03-04T01:22:23;21.20;;;13.68;;
10537;SDS011;5317;49.048;8.468;2023-03-04T01:24:50;23.42;;;14.23;;
10537;SDS011;5317;49.048;8.468;2023-03-04T01:27:18;21.30;;;14.30;;
10537;SDS011;5317;49.048;8.468;2023-03-04T01:29:45;21.25;;;13.82;;
10537;SDS011;5317;49.048;8.468;2023-03-04T01:32:11;19.75;;;13.35;;
10537;SDS011;5317;49.048;8.468;2023-03-04T01:34:38;19.83;;;12.52;;
10537;SDS011;5317;49.048;8.468;2023-03-04T01:37:05;19.35;;;13.45;;
10537;SDS011;5317;49.048;8.468;2023-03-04T01:39:32;20.88;;;13.52;;
10537;SDS011;5317;49.048;8.468;2023-03-04T01:41:59;21.23;;;13.40;;
10537;SDS011;5317;49.048;8.468;2023-03-04T01:44:28;21.02;;;13.82;;
10537;SDS011;5317;49.048;8.468;2023-03-04T01:46:54;20.70;;;13.55;;
10537;SDS011;5317;49.048;8.468;2023-03-04T01:49:22;24.23;;;14.60;;
10537;SDS011;5317;49.048;8.468;2023-03-04T01:51:50;27.55;;;16.25;;
10537;SDS011;5317;49.048;8.468;2023-03-04T01:54:19;20.40;;;13.95;;
10537;SDS011;5317;49.048;8.468;2023-03-04T01:56:47;23.27;;;14.43;;
10537;SDS011;5317;49.048;8.468;2023-03-04T01:59:16;23.27;;;14.90;;
10537;SDS011;5317;49.048;8.468;2023-03-04T02:01:46;24.65;;;15.43;;
10537;SDS011;5317;49.048;8.468;2023-03-04T02:04:15;24.83;;;15.88;;
10537;SDS011;5317;49.048;8.468;2023-03-04T02:06:43;24.13;;;16.25;;
10537;SDS011;5317;49.048;8.468;2023-03-04T02:09:11;29.10;;;17.40;;
10537;SDS011;5317;49.048;8.468;2023-03-04T02:11:39;25.38;;;16.65;;
10537;SDS011;5317;49.048;8.468;2023-03-04T02:14:06;28.10;;;16.50;;
10537;SDS011;5317;49.048;8.468;2023-03-04T02:16:34;27.70;;;16.35;;
10537;SDS011;5317;49.048;8.468;2023-03-04T02:19:02;25.80;;;16.83;;
10537;SDS011;5317;49.048;8.468;2023-03-04T02:21:32;24.38;;;16.20;;
10537;SDS011;5317;49.048;8.468;2023-03-04T02:24:02;25.42;;;16.13;;
10537;SDS011;5317;49.048;8.468;2023-03-04T02:26:40;22.15;;;15.32;;
10537;SDS011;5317;49.048;8.468;2023-03-04T02:29:08;23.95;;;15.73;;
10537;SDS011;5317;49.048;8.468;2023-03-04T02:31:36;25.85;;;15.77;;
10537;SDS011;5317;49.048;8.468;2023-03-04T02:34:05;22.88;;;15.90;;
10537;SDS011;5317;49.048;8.468;2023-03-04T02:36:37;28.80;;;15.60;;
10537;SDS011;5317;49.048;8.468;2023-03-04T02:39:09;24.77;;;16.10;;
10537;SDS011;5317;49.048;8.468;2023-03-04T02:41:38;25.58;;;17.50;;
10537;SDS011;5317;49.048;8.468;2023-03-04T02:44:09;23.98;;;15.73;;
10537;SDS011;5317;49.048;8.468;2023-03-04T02:46:42;24.30;;;15.05;;
10537;SDS011;5317;49.048;8.468;2023-03-04T02:49:09;28.10;;;16.90;;
10537;SDS011;5317;49.048;8.468;2023-03-04T02:51:36;27.45;;;17.65;;
10537;SDS011;5317;49.048;8.468;2023-03-04T02:54:03;29.92;;;18.45;;
10537;SDS011;5317;49.048;8.468;2023-03-04T02:56:30;24.73;;;16.13;;
10537;SDS011;5317;49.048;8.468;2023-03-04T02:58:57;24.05;;;16.45;;
10537;SDS011;5317;49.048;8.468;2023-03-04T03:01:28;25.05;;;15.73;;
10537;SDS011;5317;49.048;8.468;2023-03-04T03:03:54;25.30;;;16.02;;
10537;SDS011;5317;49.048;8.468;2023-03-04T03:06:21;23.70;;;15.60;;
10537;SDS011;5317;49.048;8.468;2023-03-04T03:08:48;24.98;;;15.65;;
10537;SDS011;5317;49.048;8.468;2023-03-04T03:11:15;25.73;;;15.82;;
10537;SDS011;5317;49.048;8.468;2023-03-04T03:13:42;25.20;;;15.75;;
10537;SDS011;5317;49.048;8.468;2023-03-04T03:16:08;26.92;;;17.15;;
10537;SDS011;5317;49.048;8.468;2023-03-04T03:18:37;29.05;;;18.15;;
10537;SDS011;5317;49.048;8.468;2023-03-04T03:21:04;26.83;;;16.75;;
10537;SDS011;5317;49.048;8.468;2023-03-04T03:23:31;25.80;;;16.27;;
10537;SDS011;5317;49.048;8.468;2023-03-04T03:25:58;24.67;;;16.73;;
10537;SDS011;5317;49.048;8.468;2023-03-04T03:28:25;26.70;;;17.48;;
10537;SDS011;5317;49.048;8.468;2023-03-04T03:30:52;29.35;;;16.52;;
10537;SDS011;5317;49.048;8.468;2023-03-04T03:33:20;28.75;;;16.23;;
10537;SDS011;5317;49.048;8.468;2023-03-04T03:35:48;27.13;;;17.02;;
10537;SDS011;5317;49.048;8.468;2023-03-04T03:38:15;25.23;;;16.05;;
10537;SDS011;5317;49.048;8.468;2023-03-04T03:40:42;25.30;;;16.23;;
10537;SDS011;5317;49.048;8.468;2023-03-04T03:43:08;27.27;;;17.02;;
10537;SDS011;5317;49.048;8.468;2023-03-04T03:45:35;29.05;;;17.58;;
10537;SDS011;5317;49.048;8.468;2023-03-04T03:48:02;24.30;;;16.58;;
10537;SDS011;5317;49.048;8.468;2023-03-04T03:50:29;28.08;;;17.02;;
10537;SDS011;5317;49.048;8.468;2023-03-04T03:52:58;29.63;;;17.00;;
10537;SDS011;5317;49.048;8.468;2023-03-04T03:55:25;28.05;;;17.38;;
10537;SDS011;5317;49.048;8.468;2023-03-04T03:57:53;26.63;;;16.58;;
10537;SDS011;5317;49.048;8.468;2023-03-04T04:00:20;29.42;;;17.17;;
10537;SDS011;5317;49.048;8.468;2023-03-04T04:02:47;27.75;;;16.70;;
10537;SDS011;5317;49.048;8.468;2023-03-04T04:05:14;25.30;;;16.35;;
10537;SDS011;5317;49.048;8.468;2023-03-04T04:07:41;26.95;;;16.50;;
10537;SDS011;5317;49.048;8.468;2023-03-04T04:10:10;25.90;;;16.67;;
10537;SDS011;5317;49.048;8.468;2023-03-04T04:12:37;23.75;;;16.58;;
10537;SDS011;5317;49.048;8.468;2023-03-04T04:15:04;26.40;;;16.35;;
10537;SDS011;5317;49.048;8.468;2023-03-04T04:17:32;27.92;;;16.70;;
10537;SDS011;5317;49.048;8.468;2023-03-04T04:19:59;24.42;;;15.65;;
10537;SDS011;5317;49.048;8.468;2023-03-04T04:22:26;29.00;;;17.13;;
10537;SDS011;5317;49.048;8.468;2023-03-04T04:24:53;26.52;;;15.73;;
10537;SDS011;5317;49.048;8.468;2023-03-04T04:27:21;27.70;;;17.30;;
10537;SDS011;5317;49.048;8.468;2023-03-04T04:29:48;27.05;;;17.10;;
10537;SDS011;5317;49.048;8.468;2023-03-04T04:32:15;29.08;;;16.98;;
10537;SDS011;5317;49.048;8.468;2023-03-04T04:34:41;24.67;;;15.32;;
10537;SDS011;5317;49.048;8.468;2023-03-04T04:37:08;25.90;;;16.25;;
10537;SDS011;5317;49.048;8.468;2023-03-04T04:39:35;27.15;;;16.52;;
10537;SDS011;5317;49.048;8.468;2023-03-04T04:42:02;26.30;;;16.77;;
10537;SDS011;5317;49.048;8.468;2023-03-04T04:44:31;27.90;;;17.27;;
10537;SDS011;5317;49.048;8.468;2023-03-04T04:46:58;25.60;;;16.52;;
10537;SDS011;5317;49.048;8.468;2023-03-04T04:49:24;27.27;;;17.25;;
10537;SDS011;5317;49.048;8.468;2023-03-04T04:51:51;27.08;;;16.58;;
10537;SDS011;5317;49.048;8.468;2023-03-04T04:54:18;28.40;;;17.33;;
10537;SDS011;5317;49.048;8.468;2023-03-04T04:56:45;26.48;;;16.10;;
10537;SDS011;5317;49.048;8.468;2023-03-04T04:59:12;29.63;;;16.55;;
10537;SDS011;5317;49.048;8.468;2023-03-04T05:01:40;30.20;;;17.45;;
10537;SDS011;5317;49.048;8.468;2023-03-04T05:04:07;28.10;;;17.85;;
10537;SDS011;5317;49.048;8.468;2023-03-04T05:06:34;27.08;;;16.77;;
10537;SDS011;5317;49.048;8.468;2023-03-04T05:09:01;26.63;;;17.58;;
10537;SDS011;5317;49.048;8.468;2023-03-04T05:11:28;26.15;;;17.25;;
10537;SDS011;5317;49.048;8.468;2023-03-04T05:13:55;28.95;;;17.95;;
10537;SDS011;5317;49.048;8.468;2023-03-04T05:16:22;28.52;;;17.70;;
10537;SDS011;5317;49.048;8.468;2023-03-04T05:18:50;31.45;;;18.27;;
10537;SDS011;5317;49.048;8.468;2023-03-04T05:21:17;30.60;;;17.40;;
10537;SDS011;5317;49.048;8.468;2023-03-04T05:23:48;30.05;;;18.40;;
10537;SDS011;5317;49.048;8.468;2023-03-04T05:26:16;31.10;;;18.13;;
10537;SDS011;5317;49.048;8.468;2023-03-04T05:28:44;28.27;;;18.35;;
10537;SDS011;5317;49.048;8.468;2023-03-04T05:31:11;27.40;;;16.77;;
10537;SDS011;5317;49.048;8.468;2023-03-04T05:33:38;33.22;;;18.00;;
10537;SDS011;5317;49.048;8.468;2023-03-04T05:36:07;28.98;;;17.27;;
10537;SDS011;5317;49.048;8.468;2023-03-04T05:38:34;33.20;;;18.38;;
10537;SDS011;5317;49.048;8.468;2023-03-04T05:41:02;34.65;;;18.45;;
10537;SDS011;5317;49.048;8.468;2023-03-04T05:43:31;29.27;;;17.90;;
10537;SDS011;5317;49.048;8.468;2023-03-04T05:46:00;32.42;;;18.35;;
10537;SDS011;5317;49.048;8.468;2023-03-04T05:48:28;28.55;;;17.15;;
10537;SDS011;5317;49.048;8.468;2023-03-04T05:50:55;30.15;;;17.55;;
10537;SDS011;5317;49.048;8.468;2023-03-04T05:53:24;32.13;;;17.83;;
10537;SDS011;5317;49.048;8.468;2023-03-04T05:55:51;33.67;;;17.85;;
10537;SDS011;5317;49.048;8.468;2023-03-04T05:58:18;32.90;;;19.05;;
10537;SDS011;5317;49.048;8.468;2023-03-04T06:00:45;33.08;;;18.50;;
10537;SDS011;5317;49.048;8.468;2023-03-04T06:03:13;31.38;;;18.55;;
10537;SDS011;5317;49.048;8.468;2023-03-04T06:05:41;43.03;;;19.23;;
10537;SDS011;5317;49.048;8.468;2023-03-04T06:08:12;35.80;;;18.75;;
10537;SDS011;5317;49.048;8.468;2023-03-04T06:10:41;33.92;;;19.02;;
10537;SDS011;5317;49.048;8.468;2023-03-04T06:13:08;30.42;;;18.05;;
10537;SDS011;5317;49.048;8.468;2023-03-04T06:15:35;29.77;;;17.70;;
10537;SDS011;5317;49.048;8.468;2023-03-04T06:18:03;29.02;;;16.45;;
10537;SDS011;5317;49.048;8.468;2023-03-04T06:20:30;27.83;;;16.30;;
10537;SDS011;5317;49.048;8.468;2023-03-04T06:22:57;31.35;;;17.10;;
10537;SDS011;5317;49.048;8.468;2023-03-04T06:25:24;29.90;;;16.98;;
10537;SDS011;5317;49.048;8.468;2023-03-04T06:27:52;29.55;;;17.50;;
10537;SDS011;5317;49.048;8.468;2023-03-04T06:30:19;32.67;;;18.08;;
10537;SDS011;5317;49.048;8.468;2023-03-04T06:32:46;31.98;;;18.20;;
10537;SDS011;5317;49.048;8.468;2023-03-04T06:35:14;30.55;;;17.10;;
10537;SDS011;5317;49.048;8.468;2023-03-04T06:37:42;31.65;;;18.42;;
10537;SDS011;5317;49.048;8.468;2023-03-04T06:40:09;33.90;;;18.70;;
10537;SDS011;5317;49.048;8.468;2023-03-04T06:42:37;31.40;;;18.30;;
10537;SDS011;5317;49.048;8.468;2023-03-04T06:45:07;33.65;;;18.63;;
10537;SDS011;5317;49.048;8.468;2023-03-04T06:47:50;30.05;;;17.92;;
10537;SDS011;5317;49.048;8.468;2023-03-04T06:50:16;30.90;;;17.55;;
10537;SDS011;5317;49.048;8.468;2023-03-04T06:52:43;35.58;;;19.50;;
10537;SDS011;5317;49.048;8.468;2023-03-04T06:55:10;30.67;;;19.30;;
10537;SDS011;5317;49.048;8.468;2023-03-04T06:57:39;29.52;;;18.75;;
10537;SDS011;5317;49.048;8.468;2023-03-04T07:00:08;29.95;;;17.98;;
10537;SDS011;5317;49.048;8.468;2023-03-04T07:02:35;27.20;;;18.02;;
10537;SDS011;5317;49.048;8.468;2023-03-04T07:05:02;26.65;;;17.10;;
10537;SDS011;5317;49.048;8.468;2023-03-04T07:07:30;34.05;;;18.30;;
10537;SDS011;5317;49.048;8.468;2023-03-04T07:09:57;30.95;;;17.08;;
10537;SDS011;5317;49.048;8.468;2023-03-04T07:12:23;35.22;;;19.63;;
10537;SDS011;5317;49.048;8.468;2023-03-04T07:14:50;33.60;;;19.65;;
10537;SDS011;5317;49.048;8.468;2023-03-04T07:17:19;36.47;;;20.35;;
10537;SDS011;5317;49.048;8.468;2023-03-04T07:19:45;33.30;;;19.85;;
10537;SDS011;5317;49.048;8.468;2023-03-04T07:22:12;34.50;;;20.73;;
10537;SDS011;5317;49.048;8.468;2023-03-04T07:24:39;34.38;;;19.33;;
10537;SDS011;5317;49.048;8.468;2023-03-04T07:27:06;35.80;;;20.52;;
10537;SDS011;5317;49.048;8.468;2023-03-04T07:29:33;35.72;;;21.05;;
10537;SDS011;5317;49.048;8.468;2023-03-04T07:32:00;36.42;;;20.90;;
10537;SDS011;5317;49.048;8.468;2023-03-04T07:34:28;36.20;;;22.58;;
10537;SDS011;5317;49.048;8.468;2023-03-04T07:36:55;38.08;;;20.05;;
10537;SDS011;5317;49.048;8.468;2023-03-04T07:39:22;38.28;;;20.50;;
10537;SDS011;5317;49.048;8.468;2023-03-04T07:41:49;46.13;;;26.08;;
10537;SDS011;5317;49.048;8.468;2023-03-04T07:44:15;47.08;;;28.05;;
10537;SDS011;5317;49.048;8.468;2023-03-04T07:46:42;42.38;;;24.73;;
10537;SDS011;5317;49.048;8.468;2023-03-04T07:49:10;38.70;;;21.50;;
10537;SDS011;5317;49.048;8.468;2023-03-04T07:51:39;35.50;;;20.83;;
10537;SDS011;5317;49.048;8.468;2023-03-04T07:54:06;41.00;;;20.88;;
10537;SDS011;5317;49.048;8.468;2023-03-04T07:56:33;38.97;;;20.90;;
10537;SDS011;5317;49.048;8.468;2023-03-04T07:59:00;33.63;;;19.90;;
10537;SDS011;5317;49.048;8.468;2023-03-04T08:01:28;36.60;;;20.83;;
10537;SDS011;5317;49.048;8.468;2023-03-04T08:03:56;33.25;;;19.27;;
10537;SDS011;5317;49.048;8.468;2023-03-04T08:06:23;31.38;;;18.95;;
10537;SDS011;5317;49.048;8.468;2023-03-04T08:08:55;38.30;;;21.40;;
10537;SDS011;5317;49.048;8.468;2023-03-04T08:11:23;36.83;;;20.35;;
10537;SDS011;5317;49.048;8.468;2023-03-04T08:13:51;37.00;;;21.60;;
10537;SDS011;5317;49.048;8.468;2023-03-04T08:16:19;37.08;;;21.95;;
10537;SDS011;5317;49.048;8.468;2023-03-04T08:18:48;39.97;;;22.75;;
10537;SDS011;5317;49.048;8.468;2023-03-04T08:21:17;34.28;;;21.00;;
10537;SDS011;5317;49.048;8.468;2023-03-04T08:23:45;39.53;;;21.40;;
10537;SDS011;5317;49.048;8.468;2023-03-04T08:26:14;36.80;;;22.08;;
10537;SDS011;5317;49.048;8.468;2023-03-04T08:28:43;37.22;;;22.05;;
10537;SDS011;5317;49.048;8.468;2023-03-04T08:31:11;37.08;;;21.02;;
10537;SDS011;5317;49.048;8.468;2023-03-04T08:33:38;37.30;;;22.50;;
10537;SDS011;5317;49.048;8.468;2023-03-04T08:36:05;38.75;;;23.10;;
10537;SDS011;5317;49.048;8.468;2023-03-04T08:38:33;35.03;;;20.87;;
10537;SDS011;5317;49.048;8.468;2023-03-04T08:41:00;35.33;;;20.33;;
10537;SDS011;5317;49.048;8.468;2023-03-04T08:43:29;36.13;;;20.20;;
10537;SDS011;5317;49.048;8.468;2023-03-04T08:45:57;32.47;;;19.17;;
10537;SDS011;5317;49.048;8.468;2023-03-04T08:48:24;33.73;;;19.47;;
10537;SDS011;5317;49.048;8.468;2023-03-04T08:50:51;31.77;;;20.07;;
10537;SDS011;5317;49.048;8.468;2023-03-04T08:53:19;34.10;;;19.37;;
10537;SDS011;5317;49.048;8.468;2023-03-04T08:55:46;37.17;;;20.73;;
10537;SDS011;5317;49.048;8.468;2023-03-04T08:58:14;35.03;;;20.07;;
10537;SDS011;5317;49.048;8.468;2023-03-04T09:00:42;33.90;;;20.07;;
10537;SDS011;5317;49.048;8.468;2023-03-04T09:03:12;33.83;;;19.23;;
10537;SDS011;5317;49.048;8.468;2023-03-04T09:05:39;34.22;;;19.85;;
10537;SDS011;5317;49.048;8.468;2023-03-04T09:08:06;35.97;;;20.88;;
10537;SDS011;5317;49.048;8.468;2023-03-04T09:10:33;33.77;;;19.90;;
10537;SDS011;5317;49.048;8.468;2023-03-04T09:13:00;32.13;;;19.60;;
10537;SDS011;5317;49.048;8.468;2023-03-04T09:15:28;31.85;;;19.33;;
10537;SDS011;5317;49.048;8.468;2023-03-04T09:17:56;30.93;;;19.47;;
10537;SDS011;5317;49.048;8.468;2023-03-04T09:20:23;30.88;;;19.27;;
10537;SDS011;5317;49.048;8.468;2023-03-04T09:22:50;33.27;;;19.93;;
10537;SDS011;5317;49.048;8.468;2023-03-04T09:25:17;33.23;;;19.13;;
10537;SDS011;5317;49.048;8.468;2023-03-04T09:27:44;30.03;;;18.90;;
10537;SDS011;5317;49.048;8.468;2023-03-04T09:30:11;37.33;;;21.23;;
10537;SDS011;5317;49.048;8.468;2023-03-04T09:32:38;31.98;;;20.33;;
10537;SDS011;5317;49.048;8.468;2023-03-04T09:35:07;36.13;;;22.30;;
10537;SDS011;5317;49.048;8.468;2023-03-04T09:37:35;34.10;;;22.23;;
10537;SDS011;5317;49.048;8.468;2023-03-04T09:40:02;35.83;;;22.20;;
10537;SDS011;5317;49.048;8.468;2023-03-04T09:42:32;37.20;;;22.83;;
10537;SDS011;5317;49.048;8.468;2023-03-04T09:45:01;34.57;;;23.57;;
10537;SDS011;5317;49.048;8.468;2023-03-04T09:47:31;34.70;;;22.60;;
10537;SDS011;5317;49.048;8.468;2023-03-04T09:50:02;37.60;;;22.90;;
10537;SDS011;5317;49.048;8.468;2023-03-04T09:52:36;35.40;;;23.10;;
10537;SDS011;5317;49.048;8.468;2023-03-04T09:55:17;37.70;;;24.30;;
10537;SDS011;5317;49.048;8.468;2023-03-04T09:57:50;42.20;;;25.13;;
10537;SDS011;5317;49.048;8.468;2023-03-04T10:00:22;37.70;;;24.10;;
10537;SDS011;5317;49.048;8.468;2023-03-04T10:02:56;39.77;;;24.47;;
10537;SDS011;5317;49.048;8.468;2023-03-04T10:05:40;36.03;;;24.13;;
10537;SDS011;5317;49.048;8.468;2023-03-04T10:08:23;42.67;;;25.27;;
10537;SDS011;5317;49.048;8.468;2023-03-04T10:10:58;43.43;;;26.00;;
10537;SDS011;5317;49.048;8.468;2023-03-04T10:13:28;42.70;;;26.27;;
10537;SDS011;5317;49.048;8.468;2023-03-04T10:16:01;39.90;;;25.20;;
10537;SDS011;5317;49.048;8.468;2023-03-04T10:18:32;37.83;;;24.60;;
10537;SDS011;5317;49.048;8.468;2023-03-04T10:21:03;37.03;;;24.77;;
10537;SDS011;5317;49.048;8.468;2023-03-04T10:23:39;37.00;;;23.73;;
10537;SDS011;5317;49.048;8.468;2023-03-04T10:26:09;37.10;;;23.20;;
10537;SDS011;5317;49.048;8.468;2023-03-04T10:28:39;35.80;;;23.47;;
10537;SDS011;5317;49.048;8.468;2023-03-04T10:31:08;37.13;;;23.17;;
10537;SDS011;5317;49.048;8.468;2023-03-04T10:33:42;36.07;;;23.30;;
10537;SDS011;5317;49.048;8.468;2023-03-04T10:36:15;33.67;;;22.17;;
10537;SDS011;5317;49.048;8.468;2023-03-04T10:39:06;35.43;;;23.10;;
10537;SDS011;5317;49.048;8.468;2023-03-04T10:41:36;34.07;;;22.63;;
10537;SDS011;5317;49.048;8.468;2023-03-04T10:44:11;35.33;;;23.33;;
10537;SDS011;5317;49.048;8.468;2023-03-04T10:46:43;36.43;;;23.57;;
10537;SDS011;5317;49.048;8.468;2023-03-04T10:49:11;33.80;;;23.00;;
10537;SDS011;5317;49.048;8.468;2023-03-04T10:51:41;35.03;;;22.23;;
10537;SDS011;5317;49.048;8.468;2023-03-04T10:54:15;35.33;;;22.50;;
10537;SDS011;5317;49.048;8.468;2023-03-04T10:56:54;38.30;;;22.93;;
10537;SDS011;5317;49.048;8.468;2023-03-04T10:59:38;36.07;;;22.57;;
10537;SDS011;5317;49.048;8.468;2023-03-04T11:02:12;34.40;;;22.07;;
10537;SDS011;5317;49.048;8.468;2023-03-04T11:04:43;31.37;;;20.90;;
10537;SDS011;5317;49.048;8.468;2023-03-04T11:07:17;35.43;;;21.77;;
10537;SDS011;5317;49.048;8.468;2023-03-04T11:09:45;30.93;;;20.17;;
10537;SDS011;5317;49.048;8.468;2023-03-04T11:12:13;33.67;;;20.87;;
10537;SDS011;5317;49.048;8.468;2023-03-04T11:14:44;31.97;;;21.27;;
10537;SDS011;5317;49.048;8.468;2023-03-04T11:17:16;33.77;;;20.47;;
10537;SDS011;5317;49.048;8.468;2023-03-04T11:19:49;32.47;;;19.93;;
10537;SDS011;5317;49.048;8.468;2023-03-04T11:22:20;32.53;;;19.70;;
10537;SDS011;5317;49.048;8.468;2023-03-04T11:24:53;28.33;;;18.97;;
10537;SDS011;5317;49.048;8.468;2023-03-04T11:27:24;32.33;;;20.37;;
10537;SDS011;5317;49.048;8.468;2023-03-04T11:30:02;36.37;;;20.37;;
10537;SDS011;5317;49.048;8.468;2023-03-04T11:32:42;33.87;;;22.67;;
10537;SDS011;5317;49.048;8.468;2023-03-04T11:35:14;32.27;;;19.70;;
10537;SDS011;5317;49.048;8.468;2023-03-04T11:37:49;29.13;;;20.23;;
10537;SDS011;5317;49.048;8.468;2023-03-04T11:40:25;31.67;;;19.37;;
10537;SDS011;5317;49.048;8.468;2023-03-04T11:42:57;33.50;;;20.87;;
10537;SDS011;5317;49.048;8.468;2023-03-04T11:45:30;34.17;;;21.33;;
10537;SDS011;5317;49.048;8.468;2023-03-04T11:48:07;31.33;;;19.60;;
10537;SDS011;5317;49.048;8.468;2023-03-04T11:50:43;29.93;;;19.97;;
10537;SDS011;5317;49.048;8.468;2023-03-04T11:53:17;30.17;;;18.57;;
10537;SDS011;5317;49.048;8.468;2023-03-04T11:55:55;31.57;;;19.33;;
10537;SDS011;5317;49.048;8.468;2023-03-04T11:58:51;34.17;;;19.60;;
10537;SDS011;5317;49.048;8.468;2023-03-04T12:01:32;32.93;;;19.57;;
10537;SDS011;5317;49.048;8.468;2023-03-04T12:04:12;33.43;;;20.90;;
10537;SDS011;5317;49.048;8.468;2023-03-04T12:06:53;31.83;;;20.90;;
10537;SDS011;5317;49.048;8.468;2023-03-04T12:09:42;29.53;;;18.90;;
10537;SDS011;5317;49.048;8.468;2023-03-04T12:12:21;36.10;;;20.77;;
10537;SDS011;5317;49.048;8.468;2023-03-04T12:14:58;31.40;;;20.07;;
10537;SDS011;5317;49.048;8.468;2023-03-04T12:17:40;27.87;;;19.37;;
10537;SDS011;5317;49.048;8.468;2023-03-04T12:20:24;30.20;;;19.77;;
10537;SDS011;5317;49.048;8.468;2023-03-04T12:23:01;28.00;;;18.20;;
10537;SDS011;5317;49.048;8.468;2023-03-04T12:25:43;31.53;;;19.03;;
10537;SDS011;5317;49.048;8.468;2023-03-04T12:28:33;28.10;;;18.40;;
10537;SDS011;5317;49.048;8.468;2023-03-04T12:31:28;30.47;;;18.47;;
10537;SDS011;5317;49.048;8.468;2023-03-04T12:34:04;32.93;;;19.40;;
10537;SDS011;5317;49.048;8.468;2023-03-04T12:37:09;29.83;;;19.13;;
10537;SDS011;5317;49.048;8.468;2023-03-04T12:39:47;28.37;;;18.87;;
10537;SDS011;5317;49.048;8.468;2023-03-04T12:42:27;35.47;;;22.10;;
10537;SDS011;5317;49.048;8.468;2023-03-04T12:45:03;35.57;;;19.97;;
10537;SDS011;5317;49.048;8.468;2023-03-04T12:47:43;31.50;;;18.70;;
10537;SDS011;5317;49.048;8.468;2023-03-04T12:50:25;31.80;;;20.23;;
10537;SDS011;5317;49.048;8.468;2023-03-04T12:52:59;30.97;;;18.83;;
10537;SDS011;5317;49.048;8.468;2023-03-04T12:55:37;38.17;;;24.43;;
10537;SDS011;5317;49.048;8.468;2023-03-04T12:58:05;33.07;;;20.67;;
10537;SDS011;5317;49.048;8.468;2023-03-04T13:00:45;30.60;;;19.60;;
10537;SDS011;5317;49.048;8.468;2023-03-04T13:03:18;29.27;;;19.53;;
10537;SDS011;5317;49.048;8.468;2023-03-04T13:05:56;32.90;;;19.80;;
10537;SDS011;5317;49.048;8.468;2023-03-04T13:08:32;34.50;;;19.50;;
10537;SDS011;5317;49.048;8.468;2023-03-04T13:14:07;32.27;;;19.33;;
10537;SDS011;5317;49.048;8.468;2023-03-04T13:16:51;33.50;;;19.33;;
10537;SDS011;5317;49.048;8.468;2023-03-04T13:22:28;34.20;;;19.27;;
10537;SDS011;5317;49.048;8.468;2023-03-04T13:25:00;29.93;;;18.40;;
10537;SDS011;5317;49.048;8.468;2023-03-04T13:27:48;33.43;;;18.63;;
10537;SDS011;5317;49.048;8.468;2023-03-04T13:48:06;28.33;;;17.97;;
10537;SDS011;5317;49.048;8.468;2023-03-04T13:50:50;31.93;;;19.27;;
10537;SDS011;5317;49.048;8.468;2023-03-04T13:56:10;32.13;;;18.70;;
10537;SDS011;5317;49.048;8.468;2023-03-04T13:58:46;30.80;;;18.40;;
10537;SDS011;5317;49.048;8.468;2023-03-04T14:01:23;25.70;;;16.90;;
10537;SDS011;5317;49.048;8.468;2023-03-04T14:03:51;28.47;;;16.70;;
10537;SDS011;5317;49.048;8.468;2023-03-04T14:06:20;29.93;;;17.70;;
10537;SDS011;5317;49.048;8.468;2023-03-04T14:08:49;25.77;;;16.77;;
10537;SDS011;5317;49.048;8.468;2023-03-04T14:11:20;27.73;;;17.80;;
10537;SDS011;5317;49.048;8.468;2023-03-04T14:13:51;30.40;;;17.90;;
10537;SDS011;5317;49.048;8.468;2023-03-04T14:16:21;28.70;;;17.47;;
10537;SDS011;5317;49.048;8.468;2023-03-04T14:18:56;26.97;;;17.03;;
10537;SDS011;5317;49.048;8.468;2023-03-04T14:21:29;25.27;;;16.77;;
10537;SDS011;5317;49.048;8.468;2023-03-04T14:24:00;26.23;;;16.87;;
10537;SDS011;5317;49.048;8.468;2023-03-04T14:26:30;31.97;;;17.47;;
10537;SDS011;5317;49.048;8.468;2023-03-04T14:29:28;27.67;;;16.83;;
10537;SDS011;5317;49.048;8.468;2023-03-04T14:31:55;23.10;;;15.40;;
10537;SDS011;5317;49.048;8.468;2023-03-04T14:34:24;24.20;;;15.17;;
10537;SDS011;5317;49.048;8.468;2023-03-04T14:36:56;26.10;;;16.87;;
10537;SDS011;5317;49.048;8.468;2023-03-04T14:39:29;27.07;;;16.33;;
10537;SDS011;5317;49.048;8.468;2023-03-04T14:42:01;26.37;;;16.93;;
10537;SDS011;5317;49.048;8.468;2023-03-04T14:44:35;26.90;;;16.80;;
10537;SDS011;5317;49.048;8.468;2023-03-04T14:47:09;25.33;;;15.70;;
10537;SDS011;5317;49.048;8.468;2023-03-04T14:49:41;28.87;;;16.77;;
10537;SDS011;5317;49.048;8.468;2023-03-04T14:54:58;29.17;;;16.63;;
10537;SDS011;5317;49.048;8.468;2023-03-04T14:57:27;31.33;;;16.50;;
10537;SDS011;5317;49.048;8.468;2023-03-04T15:02:53;27.40;;;16.67;;
10537;SDS011;5317;49.048;8.468;2023-03-04T15:05:23;28.07;;;15.23;;
10537;SDS011;5317;49.048;8.468;2023-03-04T15:07:52;28.13;;;16.83;;
10537;SDS011;5317;49.048;8.468;2023-03-04T15:10:21;25.90;;;16.00;;
10537;SDS011;5317;49.048;8.468;2023-03-04T15:12:51;28.07;;;16.57;;
10537;SDS011;5317;49.048;8.468;2023-03-04T15:15:31;27.00;;;16.73;;
10537;SDS011;5317;49.048;8.468;2023-03-04T15:18:13;27.47;;;16.27;;
10537;SDS011;5317;49.048;8.468;2023-03-04T15:20:51;24.20;;;16.03;;
10537;SDS011;5317;49.048;8.468;2023-03-04T15:23:19;35.10;;;16.90;;